Time;durP1;ratioP1;P1;durP2;ratioP2;P2;SDS_P1;SDS_P2;PMS_P1;PMS_P2;Temp;Humidity;BMP_temperature;BMP_pressure;BME280_temperature;BME280_humidity;BME280_pressure;Samples;Min_cycle;Max_cycle;Signal;HPM_P1;HPM_P2
2023/01/09 00:01:29;;;;;;;3.35;1.60;;;;;;;;;;4713709;28;10000666;-87
2023/01/09 00:03:55;;;;;;;2.85;1.50;;;;;;;;;;5071383;28;20028;-86
2023/01/09 00:06:21;;;;;;;1.98;1.40;;;;;;;;;;5064270;28;20108;-87
2023/01/09 00:08:47;;;;;;;1.63;1.30;;;;;;;;;;5064656;28;20110;-86
2023/01/09 00:11:13;;;;;;;3.33;1.42;;;;;;;;;;5061955;28;20483;-86
2023/01/09 00:13:39;;;;;;;2.40;1.40;;;;;;;;;;5045403;28;20083;-86
2023/01/09 00:16:06;;;;;;;3.03;1.90;;;;;;;;;;5055850;28;20642;-86
2023/01/09 00:18:32;;;;;;;2.10;1.77;;;;;;;;;;5054460;28;20027;-86
2023/01/09 00:21:02;;;;;;;1.70;1.48;;;;;;;;;;5060515;28;20169;-86
2023/01/09 00:23:28;;;;;;;4.18;1.83;;;;;;;;;;5068878;28;20651;-86
2023/01/09 00:26:10;;;;;;;2.45;1.63;;;;;;;;;;5067547;28;20040;-86
2023/01/09 00:28:36;;;;;;;2.57;1.40;;;;;;;;;;5058428;28;20136;-86
2023/01/09 00:31:03;;;;;;;2.47;1.70;;;;;;;;;;5058209;28;20275;-87
2023/01/09 00:33:32;;;;;;;2.67;1.85;;;;;;;;;;5078130;28;20032;-87
2023/01/09 00:35:58;;;;;;;2.00;1.55;;;;;;;;;;5064551;28;20062;-85
2023/01/09 00:38:24;;;;;;;2.38;1.67;;;;;;;;;;5062441;28;20114;-85
2023/01/09 00:40:50;;;;;;;3.17;1.73;;;;;;;;;;5055403;28;20111;-85
2023/01/09 00:43:16;;;;;;;4.05;1.52;;;;;;;;;;5057935;28;20021;-83
2023/01/09 00:45:43;;;;;;;3.75;1.63;;;;;;;;;;5060070;28;20016;-83
2023/01/09 00:48:11;;;;;;;4.88;2.17;;;;;;;;;;5063692;28;20044;-87
2023/01/09 00:50:37;;;;;;;3.50;1.80;;;;;;;;;;5059214;28;20025;-90
2023/01/09 00:53:07;;;;;;;2.22;1.73;;;;;;;;;;5069104;28;20052;-92
2023/01/09 00:55:34;;;;;;;2.80;1.70;;;;;;;;;;5060636;28;20492;-92
2023/01/09 00:58:01;;;;;;;3.70;1.73;;;;;;;;;;5063238;28;20063;-86
2023/01/09 01:00:27;;;;;;;2.80;1.80;;;;;;;;;;5062833;28;20086;-86
2023/01/09 01:02:53;;;;;;;2.33;1.73;;;;;;;;;;5064283;28;20020;-86
2023/01/09 01:08:15;;;;;;;6.38;3.10;;;;;;;;;;5064972;28;20044;-88
2023/01/09 01:10:41;;;;;;;2.72;2.30;;;;;;;;;;5065052;28;20493;-85
2023/01/09 01:13:07;;;;;;;2.88;2.00;;;;;;;;;;5058369;28;20710;-86
2023/01/09 01:15:33;;;;;;;1.95;1.75;;;;;;;;;;5064647;28;20059;-86
2023/01/09 01:17:59;;;;;;;3.13;2.10;;;;;;;;;;5061559;28;20479;-86
2023/01/09 01:20:26;;;;;;;3.50;2.05;;;;;;;;;;5062365;28;20111;-87
2023/01/09 01:22:52;;;;;;;6.20;2.10;;;;;;;;;;5065663;28;22946;-88
2023/01/09 01:25:18;;;;;;;2.20;2.00;;;;;;;;;;5065074;28;20020;-86
2023/01/09 01:27:44;;;;;;;3.25;1.75;;;;;;;;;;5064054;28;20048;-86
2023/01/09 01:30:12;;;;;;;3.70;1.90;;;;;;;;;;5067966;28;20041;-84
2023/01/09 01:32:38;;;;;;;1.70;1.60;;;;;;;;;;5063821;28;20017;-85
2023/01/09 01:35:04;;;;;;;2.22;1.60;;;;;;;;;;5064537;28;20028;-85
2023/01/09 01:37:30;;;;;;;2.95;1.80;;;;;;;;;;5066055;28;20392;-84
2023/01/09 01:39:56;;;;;;;3.50;1.67;;;;;;;;;;5081078;28;20020;-84
2023/01/09 01:42:22;;;;;;;2.80;1.63;;;;;;;;;;5056778;28;20032;-83
2023/01/09 01:45:02;;;;;;;3.60;1.70;;;;;;;;;;5064296;28;20023;-85
2023/01/09 01:47:33;;;;;;;3.67;1.30;;;;;;;;;;5058383;28;20052;-84
2023/01/09 01:50:02;;;;;;;3.17;1.40;;;;;;;;;;5061264;28;20137;-84
2023/01/09 01:52:29;;;;;;;2.08;1.38;;;;;;;;;;5063395;28;20078;-84
2023/01/09 01:54:55;;;;;;;1.38;1.27;;;;;;;;;;5060558;28;20630;-85
2023/01/09 01:57:21;;;;;;;3.63;1.70;;;;;;;;;;5061151;28;20119;-85
2023/01/09 01:59:50;;;;;;;2.40;1.52;;;;;;;;;;5059781;28;20039;-86
2023/01/09 02:02:18;;;;;;;2.53;1.50;;;;;;;;;;5056227;28;20402;-86
2023/01/09 02:04:45;;;;;;;2.75;1.70;;;;;;;;;;5071973;28;20725;-86
2023/01/09 02:07:11;;;;;;;1.98;1.63;;;;;;;;;;5071120;28;20029;-87
2023/01/09 02:09:38;;;;;;;4.35;1.73;;;;;;;;;;5068673;28;20036;-89
2023/01/09 02:12:15;;;;;;;3.53;1.80;;;;;;;;;;5065867;28;20024;-89
2023/01/09 02:14:41;;;;;;;4.07;2.00;;;;;;;;;;5074306;28;20548;-86
2023/01/09 02:17:24;;;;;;;2.55;1.85;;;;;;;;;;5054020;28;20037;-88
2023/01/09 02:20:12;;;;;;;3.25;1.90;;;;;;;;;;5069650;28;20028;-87
2023/01/09 02:22:42;;;;;;;3.92;1.83;;;;;;;;;;5057731;28;20548;-88
2023/01/09 02:25:17;;;;;;;1.92;1.75;;;;;;;;;;5068447;28;20066;-86
2023/01/09 02:28:06;;;;;;;2.50;1.52;;;;;;;;;;5067820;28;20027;-87
2023/01/09 02:30:38;;;;;;;4.40;1.90;;;;;;;;;;5050699;28;20017;-88
2023/01/09 02:33:23;;;;;;;2.72;1.63;;;;;;;;;;5068062;28;20031;-88
2023/01/09 02:36:01;;;;;;;2.28;1.70;;;;;;;;;;5057504;28;20028;-87
2023/01/09 02:38:46;;;;;;;3.10;1.60;;;;;;;;;;5059768;28;20032;-88
2023/01/09 02:41:23;;;;;;;2.97;1.80;;;;;;;;;;5053199;28;20044;-86
2023/01/09 02:44:01;;;;;;;3.22;1.58;;;;;;;;;;5049907;28;20033;-86
2023/01/09 02:46:27;;;;;;;3.28;2.50;;;;;;;;;;5063259;28;20115;-85
2023/01/09 02:48:53;;;;;;;4.20;1.90;;;;;;;;;;5064604;28;20293;-85
2023/01/09 02:51:35;;;;;;;2.45;1.60;;;;;;;;;;5053395;28;20028;-84
2023/01/09 02:54:01;;;;;;;2.50;1.20;;;;;;;;;;5056883;28;20035;-83
2023/01/09 02:56:36;;;;;;;2.55;1.42;;;;;;;;;;5059919;28;20033;-83
2023/01/09 02:59:05;;;;;;;1.52;1.35;;;;;;;;;;5064178;28;20116;-83
2023/01/09 03:01:46;;;;;;;1.73;1.10;;;;;;;;;;5064529;28;20056;-82
2023/01/09 03:04:20;;;;;;;2.15;1.30;;;;;;;;;;5057653;28;20041;-84
2023/01/09 03:06:49;;;;;;;1.20;1.10;;;;;;;;;;5066433;28;20035;-84
2023/01/09 03:09:19;;;;;;;2.17;1.05;;;;;;;;;;5062743;28;20032;-84
2023/01/09 03:11:48;;;;;;;1.33;1.08;;;;;;;;;;5055096;28;20028;-83
2023/01/09 03:14:15;;;;;;;2.38;1.25;;;;;;;;;;5066771;28;20038;-82
2023/01/09 03:16:42;;;;;;;2.55;1.58;;;;;;;;;;5059666;28;20111;-81
2023/01/09 03:19:11;;;;;;;1.75;1.38;;;;;;;;;;5066178;28;20054;-81
2023/01/09 03:21:37;;;;;;;3.30;1.60;;;;;;;;;;5067384;28;20051;-80
2023/01/09 03:24:03;;;;;;;2.72;1.27;;;;;;;;;;5077476;28;20492;-80
2023/01/09 03:26:30;;;;;;;2.10;1.48;;;;;;;;;;5069445;28;20030;-79
2023/01/09 03:28:56;;;;;;;1.63;1.52;;;;;;;;;;5070105;28;20115;-79
2023/01/09 03:31:22;;;;;;;2.08;1.48;;;;;;;;;;5061454;28;20131;-79
2023/01/09 03:33:48;;;;;;;1.90;1.70;;;;;;;;;;5063842;28;20388;-79
2023/01/09 03:36:17;;;;;;;3.13;1.90;;;;;;;;;;5062707;28;20789;-79
2023/01/09 03:38:43;;;;;;;2.30;1.80;;;;;;;;;;5058110;28;20442;-79
2023/01/09 03:41:09;;;;;;;3.83;1.80;;;;;;;;;;5060349;28;20760;-79
2023/01/09 03:43:36;;;;;;;2.38;1.65;;;;;;;;;;5060835;28;20116;-79
2023/01/09 03:46:02;;;;;;;2.78;1.85;;;;;;;;;;5060504;28;20028;-79
2023/01/09 03:48:28;;;;;;;2.75;1.80;;;;;;;;;;5060687;28;20647;-78
2023/01/09 03:50:55;;;;;;;1.70;1.60;;;;;;;;;;5064832;28;20036;-78
2023/01/09 03:53:21;;;;;;;2.63;1.65;;;;;;;;;;5061086;28;20389;-79
2023/01/09 03:55:49;;;;;;;1.98;1.58;;;;;;;;;;5060836;28;20083;-79
2023/01/09 03:58:15;;;;;;;2.75;1.77;;;;;;;;;;5063371;28;20128;-79
2023/01/09 04:00:41;;;;;;;1.80;1.70;;;;;;;;;;5057269;28;20499;-79
2023/01/09 04:03:08;;;;;;;2.47;1.75;;;;;;;;;;5070534;28;20462;-78
2023/01/09 04:05:34;;;;;;;2.20;1.77;;;;;;;;;;5062812;28;20025;-78
2023/01/09 04:08:01;;;;;;;3.97;1.73;;;;;;;;;;5060577;28;20032;-78
2023/01/09 04:10:27;;;;;;;2.10;1.90;;;;;;;;;;5059411;28;20024;-78
2023/01/09 04:12:53;;;;;;;2.97;1.67;;;;;;;;;;5056368;28;20029;-78
2023/01/09 04:15:19;;;;;;;1.83;1.73;;;;;;;;;;5060624;28;20070;-78
2023/01/09 04:17:45;;;;;;;4.60;1.92;;;;;;;;;;5062587;28;20020;-78
2023/01/09 04:20:11;;;;;;;1.60;1.50;;;;;;;;;;5055175;28;20025;-79
2023/01/09 04:22:37;;;;;;;2.38;1.70;;;;;;;;;;5059589;28;20032;-78
2023/01/09 04:25:03;;;;;;;1.10;1.00;;;;;;;;;;5067182;28;20495;-79
2023/01/09 04:27:29;;;;;;;0.80;0.75;;;;;;;;;;5059850;28;20017;-79
2023/01/09 04:29:55;;;;;;;0.70;0.70;;;;;;;;;;5064001;28;20067;-79
2023/01/09 04:32:21;;;;;;;0.82;0.80;;;;;;;;;;5064776;28;20056;-79
2023/01/09 04:34:47;;;;;;;1.40;0.80;;;;;;;;;;5068649;28;20016;-79
2023/01/09 04:37:13;;;;;;;2.25;0.70;;;;;;;;;;5065569;28;20048;-80
2023/01/09 04:39:42;;;;;;;0.70;0.60;;;;;;;;;;5066438;28;20499;-79
2023/01/09 04:42:09;;;;;;;0.98;0.82;;;;;;;;;;5066526;28;20020;-79
2023/01/09 04:44:35;;;;;;;1.23;1.00;;;;;;;;;;5070324;28;20720;-79
2023/01/09 04:47:01;;;;;;;0.82;0.80;;;;;;;;;;5063181;28;20497;-80
2023/01/09 04:49:27;;;;;;;0.50;0.50;;;;;;;;;;5065982;28;20078;-79
2023/01/09 04:51:53;;;;;;;1.45;0.60;;;;;;;;;;5059954;28;20677;-79
2023/01/09 04:54:19;;;;;;;1.25;0.73;;;;;;;;;;5064046;28;20032;-79
2023/01/09 04:56:45;;;;;;;1.10;0.50;;;;;;;;;;5066635;28;20480;-79
2023/01/09 04:59:11;;;;;;;2.97;0.60;;;;;;;;;;5066324;28;20044;-80
2023/01/09 05:01:37;;;;;;;0.52;0.50;;;;;;;;;;5060451;28;20027;-79
2023/01/09 05:04:04;;;;;;;0.40;0.40;;;;;;;;;;5064435;28;20577;-80
2023/01/09 05:06:30;;;;;;;0.52;0.50;;;;;;;;;;5067039;28;20031;-79
2023/01/09 05:08:56;;;;;;;0.60;0.40;;;;;;;;;;5060793;28;20016;-79
2023/01/09 05:11:24;;;;;;;0.40;0.40;;;;;;;;;;5064500;28;20032;-80
2023/01/09 05:13:50;;;;;;;0.40;0.40;;;;;;;;;;5068229;28;20029;-79
2023/01/09 05:16:16;;;;;;;0.52;0.40;;;;;;;;;;5062973;28;20074;-79
2023/01/09 05:18:42;;;;;;;0.43;0.35;;;;;;;;;;5061790;28;20019;-79
2023/01/09 05:21:09;;;;;;;1.95;0.40;;;;;;;;;;5065077;28;20717;-79
2023/01/09 05:23:35;;;;;;;2.15;0.50;;;;;;;;;;5064171;28;20799;-80
2023/01/09 05:26:03;;;;;;;0.75;0.40;;;;;;;;;;5068405;28;20103;-79
2023/01/09 05:28:29;;;;;;;0.40;0.40;;;;;;;;;;5067853;28;20085;-79
2023/01/09 05:30:55;;;;;;;1.17;0.40;;;;;;;;;;5064997;28;20032;-79
2023/01/09 05:33:21;;;;;;;0.75;0.50;;;;;;;;;;5061816;28;20086;-78
2023/01/09 05:35:47;;;;;;;0.50;0.50;;;;;;;;;;5068344;28;20244;-80
2023/01/09 05:38:13;;;;;;;0.73;0.50;;;;;;;;;;5065998;28;20052;-80
2023/01/09 05:40:39;;;;;;;2.35;0.40;;;;;;;;;;5061619;28;20033;-79
2023/01/09 05:43:05;;;;;;;0.73;0.43;;;;;;;;;;5077159;28;20038;-79
2023/01/09 05:45:31;;;;;;;0.80;0.70;;;;;;;;;;5069550;28;20081;-79
2023/01/09 05:47:57;;;;;;;1.45;1.25;;;;;;;;;;5065298;28;20051;-79
2023/01/09 05:50:23;;;;;;;1.35;0.90;;;;;;;;;;5066819;28;20032;-79
2023/01/09 05:52:49;;;;;;;1.80;1.00;;;;;;;;;;5053764;28;20086;-79
2023/01/09 05:55:15;;;;;;;1.55;1.20;;;;;;;;;;5060521;28;20036;-79
2023/01/09 05:57:41;;;;;;;1.60;1.00;;;;;;;;;;5072176;28;20028;-79
2023/01/09 06:00:07;;;;;;;2.25;1.00;;;;;;;;;;5054545;28;20041;-79
2023/01/09 06:02:33;;;;;;;0.80;0.80;;;;;;;;;;5048540;28;20020;-79
2023/01/09 06:04:59;;;;;;;0.82;0.80;;;;;;;;;;5064495;28;20062;-79
2023/01/09 06:07:25;;;;;;;3.42;1.13;;;;;;;;;;5058657;28;20017;-81
2023/01/09 06:09:51;;;;;;;2.78;1.55;;;;;;;;;;5065754;28;20032;-80
2023/01/09 06:12:17;;;;;;;1.33;0.90;;;;;;;;;;5059713;28;20032;-80
2023/01/09 06:14:43;;;;;;;1.40;0.65;;;;;;;;;;5069483;28;20016;-80
2023/01/09 06:17:10;;;;;;;1.80;1.27;;;;;;;;;;5067339;28;20117;-80
2023/01/09 06:19:36;;;;;;;1.50;0.70;;;;;;;;;;5062235;28;20047;-79
2023/01/09 06:22:02;;;;;;;2.92;0.70;;;;;;;;;;5065913;28;20033;-80
2023/01/09 06:24:28;;;;;;;1.52;0.52;;;;;;;;;;5062667;28;20013;-80
2023/01/09 06:26:53;;;;;;;1.85;0.40;;;;;;;;;;5065190;28;20477;-80
2023/01/09 06:29:19;;;;;;;1.02;0.60;;;;;;;;;;5066711;28;20343;-80
2023/01/09 06:31:45;;;;;;;1.48;0.70;;;;;;;;;;5057299;28;20017;-80
2023/01/09 06:34:11;;;;;;;4.07;0.50;;;;;;;;;;5055666;28;20050;-81
2023/01/09 06:36:37;;;;;;;1.10;1.00;;;;;;;;;;5055574;28;20278;-81
2023/01/09 06:39:03;;;;;;;1.05;0.75;;;;;;;;;;5059175;28;20036;-80
2023/01/09 06:41:29;;;;;;;4.22;1.55;;;;;;;;;;5058882;28;20036;-79
2023/01/09 06:43:55;;;;;;;1.45;1.20;;;;;;;;;;5050659;28;20060;-81
2023/01/09 06:46:21;;;;;;;1.27;0.70;;;;;;;;;;5065008;28;20500;-80
2023/01/09 06:48:47;;;;;;;3.38;1.80;;;;;;;;;;5069551;28;20102;-81
2023/01/09 06:51:13;;;;;;;2.67;0.95;;;;;;;;;;5069331;28;20036;-81
2023/01/09 06:53:39;;;;;;;3.05;1.70;;;;;;;;;;5069705;28;20038;-81
2023/01/09 06:56:05;;;;;;;9.02;5.13;;;;;;;;;;5053110;28;20513;-80
2023/01/09 06:58:31;;;;;;;34.58;19.42;;;;;;;;;;5063767;28;20062;-81
2023/01/09 07:00:58;;;;;;;6.90;4.43;;;;;;;;;;5053821;28;20043;-80
2023/01/09 07:03:24;;;;;;;8.48;4.75;;;;;;;;;;5058760;28;20603;-81
2023/01/09 07:05:50;;;;;;;2.75;1.40;;;;;;;;;;5071596;28;20105;-80
2023/01/09 07:08:16;;;;;;;0.85;0.50;;;;;;;;;;5077159;28;20201;-80
2023/01/09 07:10:42;;;;;;;4.63;0.80;;;;;;;;;;5064087;28;20027;-80
2023/01/09 07:13:08;;;;;;;3.75;1.98;;;;;;;;;;5058427;28;20147;-81
2023/01/09 07:15:34;;;;;;;3.03;1.65;;;;;;;;;;5058282;28;20050;-80
2023/01/09 07:18:01;;;;;;;9.02;5.07;;;;;;;;;;5061245;28;20032;-80
2023/01/09 07:20:27;;;;;;;4.85;2.05;;;;;;;;;;5061558;28;20040;-80
2023/01/09 07:22:53;;;;;;;7.57;2.67;;;;;;;;;;5055542;28;20036;-80
2023/01/09 07:25:19;;;;;;;7.70;3.92;;;;;;;;;;5060352;28;20153;-82
2023/01/09 07:27:45;;;;;;;12.98;5.47;;;;;;;;;;5063014;28;20023;-80
2023/01/09 07:30:11;;;;;;;10.18;4.45;;;;;;;;;;5064422;28;20120;-81
2023/01/09 07:32:39;;;;;;;6.18;3.40;;;;;;;;;;5059759;28;20032;-81
2023/01/09 07:35:05;;;;;;;7.85;3.60;;;;;;;;;;5065515;28;20041;-82
2023/01/09 07:37:32;;;;;;;5.97;2.97;;;;;;;;;;5058972;28;20031;-81
2023/01/09 07:39:57;;;;;;;7.15;3.47;;;;;;;;;;5066086;28;20024;-82
2023/01/09 07:42:24;;;;;;;9.50;5.57;;;;;;;;;;5061130;28;20051;-81
2023/01/09 07:44:50;;;;;;;5.78;4.07;;;;;;;;;;5071874;28;20040;-81
2023/01/09 07:47:16;;;;;;;10.35;4.60;;;;;;;;;;5064277;28;20036;-81
2023/01/09 07:49:42;;;;;;;5.85;3.00;;;;;;;;;;5065929;28;21149;-81
2023/01/09 07:52:08;;;;;;;10.90;5.30;;;;;;;;;;5074101;28;20027;-81
2023/01/09 07:54:34;;;;;;;6.28;3.53;;;;;;;;;;5070269;28;20766;-82
2023/01/09 07:57:00;;;;;;;4.20;2.85;;;;;;;;;;5064127;28;20129;-81
2023/01/09 07:59:28;;;;;;;6.32;3.10;;;;;;;;;;5066650;28;20038;-81
2023/01/09 08:01:54;;;;;;;3.05;1.83;;;;;;;;;;5065997;28;20035;-81
2023/01/09 08:04:20;;;;;;;3.47;2.30;;;;;;;;;;5069006;28;20013;-80
2023/01/09 08:06:46;;;;;;;4.55;2.40;;;;;;;;;;5066533;28;20024;-81
2023/01/09 08:09:13;;;;;;;3.20;1.95;;;;;;;;;;5063187;28;20025;-81
2023/01/09 08:11:39;;;;;;;6.07;3.35;;;;;;;;;;5062248;28;20042;-81
2023/01/09 08:14:05;;;;;;;9.70;4.97;;;;;;;;;;5065107;28;20021;-81
2023/01/09 08:16:31;;;;;;;6.68;3.35;;;;;;;;;;5066898;28;20024;-81
2023/01/09 08:18:57;;;;;;;7.75;4.32;;;;;;;;;;5069177;28;20070;-81
2023/01/09 08:21:23;;;;;;;9.18;5.93;;;;;;;;;;5057819;28;20491;-80
2023/01/09 08:23:49;;;;;;;5.65;3.45;;;;;;;;;;5070063;28;20012;-80
2023/01/09 08:26:15;;;;;;;9.80;4.80;;;;;;;;;;5065046;28;20028;-82
2023/01/09 08:28:41;;;;;;;8.68;4.28;;;;;;;;;;5060691;28;20479;-81
2023/01/09 08:31:07;;;;;;;3.40;2.45;;;;;;;;;;5065379;28;20454;-82
2023/01/09 08:33:34;;;;;;;5.53;3.42;;;;;;;;;;5073600;28;20579;-81
2023/01/09 08:36:00;;;;;;;7.78;2.78;;;;;;;;;;5060824;28;20013;-82
2023/01/09 08:38:26;;;;;;;5.03;2.03;;;;;;;;;;5064271;28;20024;-82
2023/01/09 08:40:52;;;;;;;6.03;1.80;;;;;;;;;;5060080;28;20085;-82
2023/01/09 08:48:47;;;;;;;4.00;1.77;;;;;;;;;;5065502;28;20456;-80
2023/01/09 08:51:14;;;;;;;1.83;1.23;;;;;;;;;;5054929;28;20021;-83
2023/01/09 08:53:40;;;;;;;6.80;1.75;;;;;;;;;;5072475;28;20093;-82
2023/01/09 08:56:06;;;;;;;1.83;1.30;;;;;;;;;;5071250;28;20032;-83
2023/01/09 08:58:32;;;;;;;3.22;1.48;;;;;;;;;;5058665;28;20044;-84
2023/01/09 09:00:58;;;;;;;1.58;1.10;;;;;;;;;;5055975;28;20032;-82
2023/01/09 09:03:24;;;;;;;7.10;1.52;;;;;;;;;;5061967;28;20082;-77
2023/01/09 09:05:50;;;;;;;2.00;1.50;;;;;;;;;;5059897;28;20021;-77
2023/01/09 09:08:16;;;;;;;2.67;1.33;;;;;;;;;;5056049;28;20025;-77
2023/01/09 09:10:42;;;;;;;2.63;1.30;;;;;;;;;;5054509;28;20127;-77
2023/01/09 09:13:08;;;;;;;4.68;2.00;;;;;;;;;;5060707;28;20476;-77
2023/01/09 09:15:36;;;;;;;4.43;1.55;;;;;;;;;;5066599;28;20149;-77
2023/01/09 09:18:03;;;;;;;3.95;1.63;;;;;;;;;;5065551;28;20415;-77
2023/01/09 09:20:34;;;;;;;5.07;1.65;;;;;;;;;;5064131;28;20029;-77
2023/01/09 09:23:00;;;;;;;2.90;1.02;;;;;;;;;;5065269;28;20424;-77
2023/01/09 09:25:27;;;;;;;4.47;1.70;;;;;;;;;;5068334;28;20267;-77
2023/01/09 09:27:55;;;;;;;5.57;2.55;;;;;;;;;;5063341;28;20489;-77
2023/01/09 09:30:21;;;;;;;6.68;2.50;;;;;;;;;;5064241;28;20392;-76
2023/01/09 09:32:47;;;;;;;3.28;1.25;;;;;;;;;;5058095;28;20211;-76
2023/01/09 09:35:13;;;;;;;3.70;1.90;;;;;;;;;;5051699;28;20044;-77
2023/01/09 09:37:39;;;;;;;5.60;2.17;;;;;;;;;;5066364;28;20024;-77
2023/01/09 09:40:06;;;;;;;6.43;2.53;;;;;;;;;;5061130;28;20036;-77
2023/01/09 09:45:22;;;;;;;7.50;1.80;;;;;;;;;;5056824;28;20043;-77
2023/01/09 09:47:49;;;;;;;6.85;2.70;;;;;;;;;;5062884;28;20087;-77
2023/01/09 09:50:41;;;;;;;3.63;1.75;;;;;;;;;;5066382;28;20510;-77
2023/01/09 09:53:10;;;;;;;5.00;1.92;;;;;;;;;;5024283;28;20586;-77
2023/01/09 09:55:39;;;;;;;5.38;1.52;;;7.10;99.90;;;;;;5052823;28;20540;-78
2023/01/09 09:58:35;;;;;;;6.07;1.45;;;7.30;99.90;;;;;;5064303;28;20032;-78
2023/01/09 10:01:01;;;;;;;2.95;1.67;;;7.50;99.90;;;;;;5058471;28;20040;-77
2023/01/09 10:03:45;;;;;;;4.13;1.00;;;7.60;99.90;;;;;;5061791;28;20435;-78
2023/01/09 10:06:36;;;;;;;2.50;0.90;;;7.80;99.90;;;;;;5062223;28;20030;-78
2023/01/09 10:09:31;;;;;;;3.63;0.75;;;7.80;99.90;;;;;;5056453;28;20501;-78
2023/01/09 10:12:07;;;;;;;7.95;1.25;;;7.80;99.90;;;;;;5070298;28;20035;-78
2023/01/09 10:14:33;;;;;;;5.15;0.90;;;7.80;99.90;;;;;;5082373;28;20396;-77
2023/01/09 10:17:21;;;;;;;3.55;0.85;;;7.80;99.90;;;;;;5080895;28;20024;-78
2023/01/09 10:20:24;;;;;;;5.57;1.98;;;7.80;99.90;;;;;;5068537;28;20478;-78
2023/01/09 10:23:17;;;;;;;3.50;1.00;;;7.80;99.90;;;;;;5050458;28;20059;-78
2023/01/09 10:26:01;;;;;;;3.60;0.88;;;7.70;99.90;;;;;;5082363;28;20455;-77
2023/01/09 10:28:52;;;;;;;2.67;0.80;;;7.70;99.90;;;;;;5067261;28;20033;-77
2023/01/09 10:31:30;;;;;;;2.58;0.88;;;7.60;99.90;;;;;;5069007;28;20020;-77
2023/01/09 10:34:16;;;;;;;5.55;1.05;;;7.50;99.90;;;;;;5069958;28;20040;-77
2023/01/09 10:37:07;;;;;;;3.90;0.88;;;7.40;99.90;;;;;;5060247;28;20338;-77
2023/01/09 10:39:45;;;;;;;7.68;1.77;;;7.50;99.90;;;;;;5063682;28;20059;-77
2023/01/09 10:42:52;;;;;;;3.67;1.20;;;7.50;99.90;;;;;;5062072;28;20104;-77
2023/01/09 10:45:52;;;;;;;5.80;1.10;;;7.60;99.90;;;;;;4988567;28;20026;-78
2023/01/09 10:48:27;;;;;;;1.85;0.80;;;7.70;99.90;;;;;;4997229;28;20130;-77
2023/01/09 10:50:55;;;;;;;5.32;0.98;;;7.80;99.90;;;;;;5048867;28;20028;-77
2023/01/09 10:53:27;;;;;;;4.70;0.60;;;8.10;99.90;;;;;;5073784;28;20040;-78
2023/01/09 10:56:06;;;;;;;3.43;0.63;;;8.40;99.90;;;;;;5067162;28;20024;-77
2023/01/09 10:58:32;;;;;;;3.38;0.80;;;8.40;99.90;;;;;;5070655;28;20290;-78
2023/01/09 11:01:00;;;;;;;3.08;0.93;;;8.40;99.90;;;;;;5054679;28;20024;-77
2023/01/09 11:03:27;;;;;;;1.08;0.70;;;8.50;99.90;;;;;;5065390;28;20238;-77
2023/01/09 11:06:00;;;;;;;2.40;0.63;;;8.50;99.90;;;;;;5052566;28;20056;-77
2023/01/09 11:08:40;;;;;;;4.72;0.70;;;8.60;99.90;;;;;;5068441;28;20111;-77
2023/01/09 11:11:07;;;;;;;5.20;0.90;;;;;;;;;;5066488;28;20044;-78
2023/01/09 11:13:35;;;;;;;2.72;0.80;;;8.40;99.90;;;;;;5046835;28;20040;-78
2023/01/09 11:16:18;;;;;;;1.95;0.88;;;8.40;99.90;;;;;;5070982;28;20031;-78
2023/01/09 11:18:49;;;;;;;2.13;0.90;;;8.30;99.90;;;;;;5063495;28;20071;-78
2023/01/09 11:21:30;;;;;;;1.52;0.80;;;8.30;99.90;;;;;;5064971;28;20033;-78
2023/01/09 11:24:16;;;;;;;1.23;0.65;;;8.20;99.90;;;;;;5061386;28;20074;-78
2023/01/09 11:26:42;;;;;;;3.65;0.70;;;8.20;99.90;;;;;;5055569;28;20032;-78
2023/01/09 11:29:17;;;;;;;2.15;0.65;;;8.10;99.90;;;;;;5066207;28;20578;-78
2023/01/09 11:31:54;;;;;;;5.25;0.80;;;8.00;99.90;;;;;;5056868;28;20035;-78
2023/01/09 11:34:24;;;;;;;2.17;0.60;;;8.00;99.90;;;;;;5076453;28;20032;-78
2023/01/09 11:37:02;;;;;;;3.28;0.77;;;8.00;99.90;;;;;;5061197;28;20025;-78
2023/01/09 11:39:32;;;;;;;2.63;0.73;;;8.00;99.90;;;;;;5050176;28;20033;-78
2023/01/09 11:42:04;;;;;;;1.65;0.65;;;7.90;99.90;;;;;;5065201;28;20028;-78
2023/01/09 11:44:31;;;;;;;1.38;0.50;;;7.90;99.90;;;;;;5074928;28;20028;-78
2023/01/09 11:46:57;;;;;;;2.03;0.70;;;7.90;99.90;;;;;;5066598;28;20032;-77
2023/01/09 11:49:29;;;;;;;3.70;0.50;;;7.90;99.90;;;;;;5066390;28;20144;-78
2023/01/09 11:52:14;;;;;;;2.70;0.70;;;8.00;99.90;;;;;;5077552;28;20397;-78
2023/01/09 11:54:53;;;;;;;3.20;0.55;;;8.00;99.90;;;;;;5051060;28;20074;-78
2023/01/09 11:57:22;;;;;;;2.92;0.60;;;8.10;99.90;;;;;;5064990;28;20586;-78
2023/01/09 11:59:49;;;;;;;3.38;0.60;;;8.00;99.90;;;;;;5066333;28;20040;-78
2023/01/09 12:02:57;;;;;;;1.67;0.52;;;8.00;99.90;;;;;;5063408;28;20029;-78
2023/01/09 12:05:33;;;;;;;4.43;0.70;;;7.90;99.90;;;;;;5053443;28;20250;-78
2023/01/09 12:08:23;;;;;;;2.83;0.68;;;7.90;99.90;;;;;;5084794;28;20408;-78
2023/01/09 12:11:26;;;;;;;2.40;0.65;;;7.90;99.90;;;;;;5046718;28;20025;-79
2023/01/09 12:14:40;;;;;;;2.05;0.40;;;7.80;99.90;;;;;;5044380;28;20387;-78
2023/01/09 12:17:29;;;;;;;0.73;0.50;;;7.80;99.90;;;;;;5041218;28;20124;-78
2023/01/09 12:20:04;;;;;;;1.40;0.30;;;7.80;99.90;;;;;;5056872;28;20051;-78
2023/01/09 12:22:56;;;;;;;2.53;0.63;;;7.70;99.90;;;;;;5045258;28;20031;-78
2023/01/09 12:25:33;;;;;;;3.72;0.60;;;7.70;99.90;;;;;;5077853;28;20032;-78
2023/01/09 12:28:08;;;;;;;1.35;0.40;;;7.70;99.90;;;;;;5053207;28;20018;-78
2023/01/09 12:31:02;;;;;;;3.08;0.80;;;7.70;99.90;;;;;;5060219;28;20033;-78
2023/01/09 12:33:51;;;;;;;2.17;0.98;;;7.70;99.90;;;;;;5065790;28;20025;-78
2023/01/09 12:36:30;;;;;;;2.67;0.60;;;7.80;99.90;;;;;;5071264;28;20047;-78
2023/01/09 12:39:12;;;;;;;1.38;0.77;;;7.80;99.90;;;;;;5059006;28;20025;-78
2023/01/09 12:41:53;;;;;;;1.92;0.80;;;7.80;99.90;;;;;;5073980;28;20459;-78
2023/01/09 12:44:39;;;;;;;1.60;0.60;;;7.80;99.90;;;;;;5059805;28;20029;-78
2023/01/09 12:47:33;;;;;;;1.85;0.55;;;7.80;99.90;;;;;;5060459;28;20036;-77
2023/01/09 12:50:07;;;;;;;2.58;0.68;;;7.90;99.90;;;;;;5069713;28;20392;-78
2023/01/09 12:52:46;;;;;;;2.17;0.90;;;8.10;99.90;;;;;;5068833;28;20023;-78
2023/01/09 12:55:21;;;;;;;2.88;0.68;;;8.30;99.90;;;;;;5049398;28;20385;-78
2023/01/09 12:57:50;;;;;;;1.52;0.40;;;8.50;99.90;;;;;;5072386;28;20387;-78
2023/01/09 13:00:36;;;;;;;1.90;0.40;;;8.70;99.90;;;;;;5065755;28;20035;-73
2023/01/09 13:03:10;;;;;;;2.25;0.57;;;;;;;;;;5054367;28;20024;-73
2023/01/09 13:05:44;;;;;;;3.70;0.95;;;;;;;;;;5059926;28;20104;-73
2023/01/09 13:08:13;;;;;;;2.75;1.20;;;;;;;;;;5049403;28;20046;-73
2023/01/09 13:10:42;;;;;;;2.28;1.40;;;;;;;;;;5056129;28;20062;-73
2023/01/09 13:13:31;;;;;;;1.88;0.70;;;;;;;;;;5058930;28;20137;-73
2023/01/09 13:15:59;;;;;;;3.00;0.70;;;;;;;;;;5031324;28;20036;-73
2023/01/09 13:18:43;;;;;;;2.40;0.65;;;;;;;;;;5071020;28;20039;-74
2023/01/09 13:21:11;;;;;;;2.55;0.80;;;;;;;;;;5057867;28;20028;-73
2023/01/09 13:24:16;;;;;;;1.58;0.60;;;;;;;;;;5068422;28;20441;-73
2023/01/09 13:26:45;;;;;;;2.80;0.80;;;;;;;;;;4989515;28;20054;-73
2023/01/09 13:29:31;;;;;;;1.50;0.60;;;;;;;;;;4977372;28;20096;-73
2023/01/09 13:32:15;;;;;;;2.03;0.50;;;;;;;;;;5035079;28;20596;-73
2023/01/09 13:34:44;;;;;;;0.88;0.50;;;;;;;;;;5052515;28;20023;-73
2023/01/09 13:37:27;;;;;;;3.22;0.47;;;;;;;;;;5053609;28;20143;-73
2023/01/09 13:39:58;;;;;;;1.42;0.50;;;;;;;;;;5047893;28;20112;-73
2023/01/09 13:45:33;;;;;;;1.67;0.40;;;8.20;99.90;;;;;;5060661;28;20082;-73
2023/01/09 13:48:09;;;;;;;1.65;0.40;;;8.10;99.90;;;;;;5068121;28;20553;-73
2023/01/09 13:50:36;;;;;;;1.08;0.40;;;8.00;99.90;;;;;;5067011;28;20112;-73
2023/01/09 13:53:17;;;;;;;1.45;0.52;;;8.00;99.90;;;;;;5062494;28;20067;-73
2023/01/09 13:55:58;;;;;;;3.92;1.00;;;7.90;99.90;;;;;;5049751;28;20029;-73
2023/01/09 13:58:25;;;;;;;0.80;0.43;;;7.90;99.90;;;;;;5053040;28;20029;-73
2023/01/09 14:00:54;;;;;;;2.03;0.60;;;7.90;99.90;;;;;;5054200;28;20295;-73
2023/01/09 14:03:22;;;;;;;1.15;0.40;;;7.80;99.90;;;;;;5065353;28;20610;-73
2023/01/09 14:05:48;;;;;;;1.48;0.50;;;;;;;;;;5068178;28;20107;-72
2023/01/09 14:08:22;;;;;;;2.60;0.98;;;7.60;99.90;;;;;;5064093;28;20024;-74
2023/01/09 14:10:58;;;;;;;1.98;1.58;;;7.60;99.90;;;;;;5062339;28;20025;-74
2023/01/09 14:13:29;;;;;;;2.40;1.70;;;7.60;99.90;;;;;;5053999;28;20092;-74
2023/01/09 14:16:10;;;;;;;1.90;0.75;;;7.50;99.90;;;;;;5060105;28;20036;-74
2023/01/09 14:18:38;;;;;;;1.48;0.55;;;7.50;99.90;;;;;;5069162;28;20488;-74
2023/01/09 14:21:06;;;;;;;3.88;0.70;;;7.40;99.90;;;;;;5062454;28;20151;-73
2023/01/09 14:23:47;;;;;;;1.10;0.40;;;7.40;99.90;;;;;;5053816;28;20388;-74
2023/01/09 14:26:22;;;;;;;2.42;0.57;;;7.30;99.90;;;;;;5068936;28;20117;-74
2023/01/09 14:28:49;;;;;;;1.02;0.50;;;7.30;99.90;;;;;;5055831;28;20089;-74
2023/01/09 14:31:30;;;;;;;1.55;0.90;;;7.20;99.90;;;;;;5058200;28;20028;-72
2023/01/09 14:34:35;;;;;;;1.17;0.63;;;7.10;99.90;;;;;;5068138;28;20089;-74
2023/01/09 14:37:01;;;;;;;1.23;0.80;;;7.10;99.90;;;;;;5011504;28;20037;-73
2023/01/09 14:39:31;;;;;;;1.17;0.60;;;7.00;99.90;;;;;;5053291;28;20451;-73
2023/01/09 14:42:06;;;;;;;1.23;1.10;;;6.90;99.90;;;;;;5068255;28;20028;-73
2023/01/09 14:44:54;;;;;;;1.77;0.95;;;6.90;99.90;;;;;;5060465;28;20035;-74
2023/01/09 14:47:47;;;;;;;2.85;1.60;;;6.80;99.90;;;;;;5074408;28;20117;-74